Time;durP1;ratioP1;P1;durP2;ratioP2;P2;SDS_P1;SDS_P2;PMS_P1;PMS_P2;Temp;Humidity;BMP_temperature;BMP_pressure;BME280_temperature;BME280_humidity;BME280_pressure;Samples;Min_cycle;Max_cycle;Signal;HPM_P1;HPM_P2
2021/10/13 00:02:09;;;;;;;3.35;2.78;;;13.10;76.60;;;;;;4897720;29;20039;-89
2021/10/13 00:04:35;;;;;;;4.65;2.90;;;13.10;76.70;;;;;;4914453;29;20040;-83
2021/10/13 00:07:02;;;;;;;3.13;2.80;;;13.20;76.90;;;;;;4914155;29;20031;-79
2021/10/13 00:09:28;;;;;;;3.15;2.63;;;13.10;76.80;;;;;;4902307;29;21057;-90
2021/10/13 00:11:54;;;;;;;3.40;2.97;;;13.20;77.00;;;;;;4877766;29;20123;-89
2021/10/13 00:14:20;;;;;;;3.70;2.90;;;13.20;77.00;;;;;;4891944;29;20101;-85
2021/10/13 00:16:55;;;;;;;3.20;2.90;;;13.20;77.10;;;;;;4914376;29;20392;-86
2021/10/13 00:19:22;;;;;;;3.15;2.70;;;13.20;77.10;;;;;;4897344;29;20024;-87
2021/10/13 00:21:48;;;;;;;3.97;3.03;;;13.20;77.10;;;;;;4881166;29;20047;-87
2021/10/13 00:24:14;;;;;;;3.60;2.97;;;13.20;77.10;;;;;;4912837;29;20127;-83
2021/10/13 00:26:40;;;;;;;2.53;2.30;;;13.20;77.10;;;;;;4895934;29;20063;-86
2021/10/13 00:29:06;;;;;;;3.90;2.83;;;13.20;77.10;;;;;;4896578;29;20032;-89
2021/10/13 00:31:33;;;;;;;3.90;2.80;;;13.20;77.10;;;;;;4896645;29;20095;-86
2021/10/13 00:33:59;;;;;;;2.85;2.50;;;13.20;77.20;;;;;;4901763;29;20116;-81
2021/10/13 00:36:24;;;;;;;4.70;3.35;;;13.20;77.20;;;;;;4894877;29;20500;-87
2021/10/13 00:38:50;;;;;;;3.28;2.63;;;13.20;77.20;;;;;;4877615;29;20505;-82
2021/10/13 00:41:16;;;;;;;3.42;2.38;;;13.20;77.20;;;;;;4912481;29;20131;-89
2021/10/13 00:43:43;;;;;;;4.13;2.78;;;13.20;77.20;;;;;;4906763;29;20105;-86
2021/10/13 00:46:09;;;;;;;3.80;2.92;;;13.20;77.30;;;;;;4904311;29;20087;-86
2021/10/13 00:48:35;;;;;;;4.43;2.78;;;13.20;77.30;;;;;;4894697;29;20036;-89
2021/10/13 00:51:02;;;;;;;3.60;3.03;;;13.30;77.40;;;;;;4893527;29;20533;-87
2021/10/13 00:53:28;;;;;;;4.18;2.95;;;13.20;77.30;;;;;;4889413;29;20506;-90
2021/10/13 00:55:56;;;;;;;4.93;3.90;;;13.20;77.30;;;;;;4874658;29;20059;-88
2021/10/13 00:58:24;;;;;;;3.05;2.70;;;13.20;77.30;;;;;;4892492;29;20568;-89
2021/10/13 01:01:02;;;;;;;3.75;3.05;;;13.20;77.30;;;;;;4876937;29;20047;-89
2021/10/13 01:03:53;;;;;;;4.95;3.03;;;13.20;77.30;;;;;;4912055;29;20067;-91
2021/10/13 01:06:43;;;;;;;3.78;2.95;;;13.20;77.30;;;;;;4912534;29;20075;-89
2021/10/13 01:09:21;;;;;;;3.58;3.00;;;13.20;77.20;;;;;;4895184;29;20036;-87
2021/10/13 01:12:05;;;;;;;2.95;2.60;;;13.20;77.20;;;;;;4912882;29;20060;-88
2021/10/13 01:14:42;;;;;;;3.53;3.00;;;13.10;77.00;;;;;;4913462;29;20036;-89
2021/10/13 01:17:19;;;;;;;3.33;2.60;;;13.10;77.00;;;;;;4913632;29;20492;-90
2021/10/13 01:19:45;;;;;;;3.45;2.83;;;13.00;76.80;;;;;;4897064;29;20036;-90
2021/10/13 01:22:39;;;;;;;4.13;3.00;;;13.00;76.80;;;;;;4880921;29;20047;-89
2021/10/13 01:25:27;;;;;;;4.65;2.97;;;13.00;76.80;;;;;;4906201;29;20049;-91
2021/10/13 01:27:59;;;;;;;5.97;2.88;;;12.90;76.70;;;;;;4893661;29;20051;-88
2021/10/13 01:30:30;;;;;;;3.87;3.07;;;12.90;76.70;;;;;;4895927;29;20080;-85
2021/10/13 01:33:36;;;;;;;4.82;3.25;;;12.90;76.70;;;;;;4908207;29;20032;-87
2021/10/13 01:36:11;;;;;;;4.40;3.58;;;12.80;76.60;;;;;;4891704;29;20545;-88
2021/10/13 01:38:46;;;;;;;3.30;2.63;;;12.80;76.60;;;;;;4913262;29;20167;-85
2021/10/13 01:41:13;;;;;;;4.47;3.08;;;12.80;77.20;;;;;;4913665;29;20048;-89
2021/10/13 01:43:47;;;;;;;3.83;3.40;;;12.70;76.60;;;;;;4913767;29;20119;-90
2021/10/13 01:46:16;;;;;;;4.05;3.22;;;12.70;76.70;;;;;;4912163;29;20087;-87
2021/10/13 01:48:44;;;;;;;4.75;3.30;;;12.70;76.70;;;;;;4911164;29;20556;-89
2021/10/13 01:51:13;;;;;;;4.85;3.03;;;12.60;76.60;;;;;;4882688;29;20032;-86
2021/10/13 01:53:41;;;;;;;4.82;3.00;;;12.60;76.60;;;;;;4896537;29;20111;-84
2021/10/13 01:56:08;;;;;;;4.90;4.15;;;12.60;76.60;;;;;;4912201;29;20060;-89
2021/10/13 01:58:37;;;;;;;3.70;3.25;;;12.50;76.40;;;;;;4916468;29;20079;-88
2021/10/13 02:01:04;;;;;;;4.68;3.22;;;12.50;76.50;;;;;;4915747;29;20044;-88
2021/10/13 02:03:32;;;;;;;4.32;3.03;;;12.50;76.60;;;;;;4898788;29;20060;-84
2021/10/13 02:06:02;;;;;;;4.45;3.58;;;12.50;76.70;;;;;;4900110;29;20020;-89
2021/10/13 02:08:29;;;;;;;4.00;3.20;;;12.50;76.70;;;;;;4916735;29;20043;-92
2021/10/13 02:10:57;;;;;;;4.72;3.53;;;12.40;76.60;;;;;;4917007;29;20076;-88
2021/10/13 02:13:25;;;;;;;4.53;3.08;;;12.40;76.70;;;;;;4916117;29;20032;-86
2021/10/13 02:15:53;;;;;;;4.88;3.50;;;12.40;76.80;;;;;;4916253;29;20063;-87
2021/10/13 02:18:27;;;;;;;2.97;2.67;;;12.40;76.90;;;;;;4899206;29;20043;-86
2021/10/13 02:20:56;;;;;;;5.63;3.38;;;12.30;76.90;;;;;;4916061;29;20039;-88
2021/10/13 02:23:25;;;;;;;4.20;2.60;;;12.40;77.10;;;;;;4898753;29;20024;-85
2021/10/13 02:25:53;;;;;;;3.88;3.30;;;12.40;77.20;;;;;;4902642;29;20139;-84
2021/10/13 02:28:32;;;;;;;3.75;3.13;;;12.30;77.10;;;;;;4905727;29;20110;-86
2021/10/13 02:30:58;;;;;;;5.88;3.50;;;12.40;77.30;;;;;;4915081;29;20135;-84
2021/10/13 02:33:24;;;;;;;3.70;3.17;;;12.30;77.10;;;;;;4897761;29;20043;-82
2021/10/13 02:35:51;;;;;;;5.55;2.95;;;12.40;77.30;;;;;;4914813;29;20167;-85
2021/10/13 02:38:18;;;;;;;3.90;3.47;;;12.30;77.20;;;;;;4882457;29;20036;-87
2021/10/13 02:40:44;;;;;;;4.25;3.15;;;12.30;77.20;;;;;;4914613;29;20097;-86
2021/10/13 02:43:11;;;;;;;4.60;2.92;;;12.30;77.30;;;;;;4915335;29;20032;-83
2021/10/13 02:45:41;;;;;;;4.75;3.25;;;12.40;77.50;;;;;;4914445;29;20036;-86
2021/10/13 02:48:12;;;;;;;5.10;3.50;;;12.40;77.50;;;;;;4898147;29;20024;-85
2021/10/13 02:50:42;;;;;;;3.55;3.25;;;12.30;77.40;;;;;;4914901;29;20028;-87
2021/10/13 02:53:25;;;;;;;5.53;3.47;;;12.30;77.40;;;;;;4913988;29;20039;-85
2021/10/13 02:55:55;;;;;;;4.88;3.22;;;12.30;77.50;;;;;;4915066;29;20046;-84
2021/10/13 02:58:41;;;;;;;3.67;3.38;;;12.40;77.60;;;;;;4914714;29;20024;-82
2021/10/13 03:01:12;;;;;;;3.50;3.20;;;12.40;77.60;;;;;;4895968;29;20032;-82
2021/10/13 03:03:58;;;;;;;5.60;3.50;;;12.40;77.60;;;;;;4897458;29;20476;-85
2021/10/13 03:06:30;;;;;;;4.43;2.83;;;12.40;77.70;;;;;;4914925;29;20509;-88
2021/10/13 03:08:57;;;;;;;3.83;3.17;;;12.40;77.60;;;;;;4915120;29;20377;-87
2021/10/13 03:11:25;;;;;;;4.25;3.38;;;12.40;77.60;;;;;;4914986;29;20071;-86
2021/10/13 03:13:53;;;;;;;3.92;3.50;;;12.30;77.40;;;;;;4918573;29;20024;-86
2021/10/13 03:16:20;;;;;;;4.15;3.42;;;12.40;77.60;;;;;;4918663;29;20119;-83
2021/10/13 03:18:47;;;;;;;4.80;3.30;;;12.30;77.40;;;;;;4901603;29;20091;-87
2021/10/13 03:21:15;;;;;;;4.53;3.53;;;12.30;77.40;;;;;;4886449;29;20477;-81
2021/10/13 03:23:43;;;;;;;4.13;3.22;;;12.30;77.40;;;;;;4918712;29;20041;-87
2021/10/13 03:26:12;;;;;;;3.53;3.22;;;12.30;77.30;;;;;;4886510;29;20127;-85
2021/10/13 03:28:40;;;;;;;4.03;3.45;;;12.30;77.40;;;;;;4899690;29;20061;-88
2021/10/13 03:31:06;;;;;;;5.03;3.78;;;12.30;77.40;;;;;;4911021;29;20027;-85
2021/10/13 03:33:36;;;;;;;4.03;3.40;;;12.20;77.30;;;;;;4900927;29;20064;-88
2021/10/13 03:36:03;;;;;;;4.85;4.28;;;12.20;77.30;;;;;;4901648;29;20063;-82
2021/10/13 03:38:29;;;;;;;4.78;4.32;;;12.20;77.40;;;;;;4917258;29;20035;-86
2021/10/13 03:40:56;;;;;;;5.82;3.90;;;12.20;77.40;;;;;;4917373;29;20039;-85
2021/10/13 03:43:22;;;;;;;4.43;3.75;;;12.20;77.50;;;;;;4917876;29;20492;-85
2021/10/13 03:45:48;;;;;;;5.10;4.47;;;12.30;77.70;;;;;;4917623;29;20056;-87
2021/10/13 03:48:14;;;;;;;6.97;4.95;;;12.20;77.60;;;;;;4917621;29;20103;-84
2021/10/13 03:50:40;;;;;;;5.43;4.70;;;12.20;77.60;;;;;;4918250;29;20171;-86
2021/10/13 03:53:06;;;;;;;4.53;4.10;;;12.20;77.70;;;;;;4917372;29;20043;-83
2021/10/13 03:55:32;;;;;;;5.07;4.47;;;12.20;77.70;;;;;;4917585;29;20048;-83
2021/10/13 03:57:59;;;;;;;4.35;3.95;;;12.30;77.90;;;;;;4918533;29;20082;-88
2021/10/13 04:00:25;;;;;;;7.57;4.70;;;12.20;77.70;;;;;;4890670;29;20028;-85
2021/10/13 04:02:51;;;;;;;5.50;5.00;;;12.30;77.80;;;;;;4899241;29;20040;-87
2021/10/13 04:05:17;;;;;;;5.15;4.15;;;12.30;77.90;;;;;;4883250;29;20044;-89
2021/10/13 04:07:43;;;;;;;5.25;4.60;;;12.30;77.90;;;;;;4900314;29;20039;-91
2021/10/13 04:10:12;;;;;;;7.30;5.35;;;12.30;77.90;;;;;;4867552;29;20067;-88
2021/10/13 04:12:38;;;;;;;5.85;4.63;;;12.20;77.80;;;;;;4899196;29;20076;-88
2021/10/13 04:15:07;;;;;;;5.82;4.50;;;12.30;77.90;;;;;;4899303;29;20353;-84
2021/10/13 04:17:33;;;;;;;6.00;4.40;;;12.20;77.80;;;;;;4899296;29;20494;-86
2021/10/13 04:20:05;;;;;;;4.63;4.22;;;12.30;77.90;;;;;;4905281;29;20385;-85
2021/10/13 04:22:31;;;;;;;5.45;4.80;;;12.30;78.00;;;;;;4898278;29;20064;-84
2021/10/13 04:24:58;;;;;;;4.45;3.92;;;12.30;77.90;;;;;;4903674;29;20059;-86
2021/10/13 04:27:24;;;;;;;6.15;4.70;;;12.20;77.70;;;;;;4917784;29;20060;-89
2021/10/13 04:29:49;;;;;;;5.18;4.43;;;12.20;77.70;;;;;;4919771;29;20056;-90
2021/10/13 04:32:20;;;;;;;5.32;4.72;;;12.20;77.70;;;;;;4919460;29;20050;-90
2021/10/13 04:34:50;;;;;;;5.50;5.00;;;12.20;77.70;;;;;;4919209;29;20488;-89
2021/10/13 04:37:16;;;;;;;6.00;4.93;;;12.20;77.70;;;;;;4918717;29;20040;-86
2021/10/13 04:39:42;;;;;;;6.18;4.85;;;12.20;77.60;;;;;;4886056;29;20119;-88
2021/10/13 04:42:09;;;;;;;5.55;5.00;;;12.20;77.60;;;;;;4918018;29;20123;-87
2021/10/13 04:44:34;;;;;;;5.60;5.10;;;12.10;77.50;;;;;;4916192;29;20032;-88
2021/10/13 04:47:00;;;;;;;5.25;4.75;;;12.10;77.50;;;;;;4916446;29;20090;-87
2021/10/13 04:49:46;;;;;;;5.65;5.13;;;12.10;77.50;;;;;;4888983;29;20498;-86
2021/10/13 04:52:32;;;;;;;7.22;5.65;;;12.00;77.30;;;;;;4914685;29;20097;-87
2021/10/13 04:55:18;;;;;;;6.20;5.35;;;12.00;77.30;;;;;;4892058;29;20128;-85
2021/10/13 04:57:44;;;;;;;7.20;5.43;;;12.00;77.30;;;;;;4890175;29;20037;-82
2021/10/13 05:00:11;;;;;;;7.07;5.25;;;12.00;77.30;;;;;;4894193;29;20044;-85
2021/10/13 05:02:37;;;;;;;6.40;5.78;;;12.00;77.30;;;;;;4897116;29;20139;-82
2021/10/13 05:05:03;;;;;;;6.38;5.57;;;11.90;77.20;;;;;;4911560;29;20526;-84
2021/10/13 05:07:29;;;;;;;5.55;4.90;;;11.90;77.20;;;;;;4895456;29;20032;-85
2021/10/13 05:09:55;;;;;;;5.93;5.30;;;11.90;77.20;;;;;;4913579;29;20099;-88
2021/10/13 05:12:21;;;;;;;5.95;5.35;;;11.90;77.30;;;;;;4895542;29;20043;-82
2021/10/13 05:14:47;;;;;;;6.15;5.00;;;11.90;77.40;;;;;;4877619;29;20453;-88
2021/10/13 05:17:13;;;;;;;6.53;5.32;;;11.80;77.20;;;;;;4877356;29;20044;-85
2021/10/13 05:19:39;;;;;;;6.32;5.43;;;11.90;77.60;;;;;;4892957;29;20099;-87
2021/10/13 05:22:04;;;;;;;5.60;5.00;;;11.80;77.30;;;;;;4897949;29;20060;-84
2021/10/13 05:24:30;;;;;;;7.88;5.50;;;11.90;77.60;;;;;;4897391;29;20036;-84
2021/10/13 05:26:56;;;;;;;6.55;5.63;;;11.80;77.50;;;;;;4894552;29;20064;-83
2021/10/13 05:29:22;;;;;;;6.82;5.60;;;11.80;77.50;;;;;;4912028;29;20496;-83
2021/10/13 05:31:48;;;;;;;6.30;5.70;;;11.90;77.80;;;;;;4911774;29;20511;-88
2021/10/13 05:34:14;;;;;;;6.60;5.13;;;11.80;77.60;;;;;;4893999;29;20063;-84
2021/10/13 05:36:40;;;;;;;6.72;5.88;;;11.80;77.70;;;;;;4911332;29;20040;-80
2021/10/13 05:39:06;;;;;;;5.72;5.22;;;11.90;77.90;;;;;;4911784;29;20716;-87
2021/10/13 05:41:33;;;;;;;6.03;5.47;;;11.90;78.00;;;;;;4906583;29;20075;-84
2021/10/13 05:43:58;;;;;;;5.65;5.05;;;11.80;77.80;;;;;;4887785;29;20048;-84
2021/10/13 05:46:24;;;;;;;5.93;5.35;;;11.90;78.00;;;;;;4902219;29;20532;-86
2021/10/13 05:48:51;;;;;;;6.15;5.35;;;11.90;78.00;;;;;;4890790;29;20024;-84
2021/10/13 05:51:17;;;;;;;6.55;5.03;;;11.90;78.00;;;;;;4886665;29;20035;-85
2021/10/13 05:53:43;;;;;;;5.63;5.07;;;11.90;78.10;;;;;;4902057;29;20051;-79
2021/10/13 05:56:09;;;;;;;5.43;4.82;;;11.90;78.10;;;;;;4908963;29;20495;-79
2021/10/13 05:58:37;;;;;;;5.70;5.18;;;11.90;78.10;;;;;;4900817;29;20025;-88
2021/10/13 06:01:03;;;;;;;6.35;5.15;;;11.90;78.10;;;;;;4875017;29;20037;-83
2021/10/13 06:03:29;;;;;;;6.97;4.95;;;11.90;78.10;;;;;;4891986;29;20230;-81
2021/10/13 06:05:55;;;;;;;5.38;4.88;;;11.90;78.10;;;;;;4892746;29;20040;-84
2021/10/13 06:08:21;;;;;;;6.03;5.32;;;11.90;78.10;;;;;;4893014;29;20389;-85
2021/10/13 06:10:47;;;;;;;5.32;4.82;;;12.00;78.30;;;;;;4877762;29;20749;-88
2021/10/13 06:13:13;;;;;;;5.60;5.00;;;12.00;78.30;;;;;;4898002;29;20527;-83
2021/10/13 06:15:39;;;;;;;5.55;5.00;;;12.00;78.30;;;;;;4901010;29;20318;-81
2021/10/13 06:18:07;;;;;;;5.90;5.40;;;12.00;78.30;;;;;;4893932;29;20044;-84
2021/10/13 06:20:33;;;;;;;5.72;5.18;;;12.00;78.30;;;;;;4899472;29;20476;-82
2021/10/13 06:23:00;;;;;;;6.00;4.70;;;12.10;78.40;;;;;;4877360;29;20078;-88
2021/10/13 06:25:26;;;;;;;5.78;5.18;;;12.00;78.20;;;;;;4906536;29;20063;-83
2021/10/13 06:27:52;;;;;;;5.00;4.50;;;12.10;78.40;;;;;;4910555;29;20028;-85
2021/10/13 06:30:18;;;;;;;5.75;4.32;;;12.10;78.40;;;;;;4904881;29;20078;-82
2021/10/13 06:32:44;;;;;;;7.63;5.20;;;12.10;78.40;;;;;;4883759;29;20021;-80
2021/10/13 06:35:11;;;;;;;5.78;4.93;;;12.10;78.40;;;;;;4904792;29;20072;-83
2021/10/13 06:37:37;;;;;;;5.55;5.00;;;12.10;78.40;;;;;;4889718;29;20055;-82
2021/10/13 06:40:03;;;;;;;5.72;5.20;;;12.10;78.40;;;;;;4904925;29;20476;-79
2021/10/13 06:42:29;;;;;;;5.30;4.80;;;12.10;78.40;;;;;;4907841;29;20476;-80
2021/10/13 06:44:55;;;;;;;5.82;5.07;;;12.10;78.40;;;;;;4898022;29;20059;-78
2021/10/13 06:47:21;;;;;;;6.50;5.85;;;12.10;78.40;;;;;;4894885;29;20604;-81
2021/10/13 06:49:47;;;;;;;6.10;5.13;;;12.10;78.40;;;;;;4891202;29;20127;-82
2021/10/13 06:52:13;;;;;;;5.22;4.63;;;12.10;78.40;;;;;;4913734;29;20408;-82
2021/10/13 06:54:40;;;;;;;5.20;4.70;;;12.10;78.40;;;;;;4905816;29;20353;-82
2021/10/13 06:57:06;;;;;;;5.55;5.05;;;12.20;78.60;;;;;;4891202;29;20059;-82
2021/10/13 06:59:31;;;;;;;6.00;5.25;;;12.20;78.60;;;;;;4903890;29;20040;-84
2021/10/13 07:01:57;;;;;;;5.20;4.63;;;12.20;78.60;;;;;;4896381;29;20298;-82
2021/10/13 07:04:23;;;;;;;5.47;4.97;;;12.20;78.50;;;;;;4906759;29;20032;-82
2021/10/13 07:06:49;;;;;;;6.68;5.80;;;12.30;78.70;;;;;;4904251;29;20036;-82
2021/10/13 07:09:15;;;;;;;6.13;5.53;;;12.30;78.70;;;;;;4872002;29;20036;-82
2021/10/13 07:11:41;;;;;;;5.85;5.25;;;12.30;78.70;;;;;;4901819;29;20032;-84
2021/10/13 07:14:09;;;;;;;6.40;5.47;;;12.30;78.70;;;;;;4889315;29;20518;-83
2021/10/13 07:16:35;;;;;;;5.50;5.00;;;12.40;78.80;;;;;;4902303;29;20044;-82
2021/10/13 07:19:01;;;;;;;6.30;5.63;;;12.40;78.70;;;;;;4900473;29;20056;-83
2021/10/13 07:21:27;;;;;;;6.53;5.50;;;12.50;78.90;;;;;;4907111;29;20110;-83
2021/10/13 07:23:53;;;;;;;6.18;5.30;;;12.40;78.70;;;;;;4904125;29;20028;-81
2021/10/13 07:26:19;;;;;;;5.95;5.45;;;12.50;78.80;;;;;;4894987;29;20500;-80
2021/10/13 07:28:45;;;;;;;6.80;5.43;;;12.50;78.80;;;;;;4885900;29;20529;-81
2021/10/13 07:31:11;;;;;;;6.10;5.40;;;12.50;78.70;;;;;;4883497;29;20035;-82
2021/10/13 07:33:37;;;;;;;6.65;5.18;;;12.60;78.80;;;;;;4884682;29;20115;-84
2021/10/13 07:36:04;;;;;;;5.53;5.03;;;12.60;78.80;;;;;;4870883;29;20544;-83
2021/10/13 07:38:31;;;;;;;5.78;5.10;;;12.70;78.90;;;;;;4884786;29;20037;-82
2021/10/13 07:40:57;;;;;;;5.60;4.97;;;12.70;78.80;;;;;;4882641;29;20184;-85
2021/10/13 07:43:25;;;;;;;7.07;4.97;;;12.70;78.80;;;;;;4874552;29;20370;-82
2021/10/13 07:45:51;;;;;;;7.20;5.78;;;12.80;78.90;;;;;;4869635;29;20032;-82
2021/10/13 07:48:17;;;;;;;7.30;5.30;;;12.80;78.90;;;;;;4884064;29;20075;-83
2021/10/13 07:50:43;;;;;;;5.57;4.72;;;12.80;78.90;;;;;;4865603;29;20495;-89
2021/10/13 07:53:09;;;;;;;6.30;5.10;;;12.90;78.90;;;;;;4887665;29;20035;-81
2021/10/13 07:55:35;;;;;;;5.07;4.57;;;12.90;78.90;;;;;;4873590;29;20404;-83
2021/10/13 07:58:01;;;;;;;5.90;5.18;;;12.90;78.80;;;;;;4874484;29;20556;-80
2021/10/13 08:00:27;;;;;;;6.47;5.68;;;13.00;79.00;;;;;;4868671;29;20489;-89
2021/10/13 08:02:53;;;;;;;6.18;5.57;;;13.00;78.90;;;;;;4886835;29;20095;-82
2021/10/13 08:05:20;;;;;;;5.90;5.40;;;13.00;78.90;;;;;;4883631;29;20025;-82
2021/10/13 08:07:46;;;;;;;7.18;5.60;;;13.10;79.00;;;;;;4884503;29;20036;-80
2021/10/13 08:10:13;;;;;;;5.22;4.72;;;13.10;79.00;;;;;;4883459;29;20029;-84
2021/10/13 08:12:40;;;;;;;6.25;5.20;;;13.20;79.10;;;;;;4884380;29;20025;-84
2021/10/13 08:15:07;;;;;;;5.93;5.13;;;13.20;79.00;;;;;;4858106;29;20056;-86
2021/10/13 08:17:33;;;;;;;6.15;5.47;;;13.30;79.20;;;;;;4852236;29;20046;-83
2021/10/13 08:20:03;;;;;;;5.97;5.38;;;13.30;79.00;;;;;;4880677;29;20043;-84
2021/10/13 08:22:29;;;;;;;7.63;6.22;;;13.40;79.20;;;;;;4855188;29;20481;-84
2021/10/13 08:24:55;;;;;;;6.20;5.35;;;13.40;79.10;;;;;;4888707;29;20578;-88
2021/10/13 08:27:21;;;;;;;6.43;5.45;;;13.40;79.00;;;;;;4903971;29;20036;-88
2021/10/13 08:29:47;;;;;;;5.63;5.13;;;13.60;79.30;;;;;;4905567;29;20495;-85
2021/10/13 08:32:13;;;;;;;8.43;6.10;;;13.60;79.20;;;;;;4906331;29;20034;-82
2021/10/13 08:34:39;;;;;;;5.82;5.32;;;13.60;79.10;;;;;;4902506;29;20091;-84
2021/10/13 08:37:08;;;;;;;5.65;5.15;;;13.70;79.30;;;;;;4906253;29;20043;-84
2021/10/13 08:39:34;;;;;;;7.68;5.90;;;13.80;79.30;;;;;;4904408;29;20028;-81
2021/10/13 08:42:00;;;;;;;6.20;5.60;;;13.80;79.20;;;;;;4905957;29;20511;-81
2021/10/13 08:44:26;;;;;;;6.03;5.30;;;13.90;79.30;;;;;;4903673;29;20047;-80
2021/10/13 08:46:52;;;;;;;5.97;5.07;;;13.90;79.20;;;;;;4901118;29;20036;-88
2021/10/13 08:49:18;;;;;;;6.30;5.70;;;14.00;79.30;;;;;;4904105;29;20132;-82
2021/10/13 08:51:45;;;;;;;7.40;5.18;;;14.10;79.30;;;;;;4899609;29;20119;-84
2021/10/13 08:54:17;;;;;;;7.55;5.15;;;14.10;79.30;;;;;;4892402;29;20445;-85
2021/10/13 08:56:43;;;;;;;6.50;5.57;;;14.20;79.40;;;;;;4893561;29;20048;-85
2021/10/13 08:59:09;;;;;;;6.43;5.47;;;14.20;79.20;;;;;;4892485;29;20087;-87
2021/10/13 09:01:48;;;;;;;6.68;5.20;;;14.30;79.40;;;;;;4895298;29;20502;-87
2021/10/13 09:04:15;;;;;;;7.00;6.30;;;14.30;79.30;;;;;;4893379;29;20028;-88
2021/10/13 09:06:41;;;;;;;6.82;5.38;;;14.30;79.20;;;;;;4894792;29;20284;-85
2021/10/13 09:09:09;;;;;;;6.80;5.40;;;14.40;79.30;;;;;;4906517;29;20542;-85
2021/10/13 09:11:49;;;;;;;7.15;5.97;;;14.40;79.20;;;;;;4905103;29;20227;-85
2021/10/13 09:14:17;;;;;;;5.85;5.07;;;14.50;79.30;;;;;;4895473;29;20429;-82
2021/10/13 09:17:01;;;;;;;7.65;6.43;;;14.50;79.20;;;;;;4903066;29;20408;-82
2021/10/13 09:19:45;;;;;;;7.53;6.15;;;14.50;79.20;;;;;;4899050;29;20060;-84
2021/10/13 09:22:15;;;;;;;7.55;5.90;;;14.60;79.30;;;;;;4900417;29;20040;-82
2021/10/13 09:24:47;;;;;;;6.70;5.93;;;14.60;79.20;;;;;;4902915;29;20119;-82
2021/10/13 09:27:20;;;;;;;7.88;5.70;;;14.70;79.30;;;;;;4885904;29;20123;-86
2021/10/13 09:29:47;;;;;;;6.70;5.80;;;14.70;79.20;;;;;;4903618;29;20351;-83
2021/10/13 09:32:22;;;;;;;7.10;6.40;;;14.70;79.10;;;;;;5062497;28;20453;-72
2021/10/13 09:34:57;;;;;;;7.30;6.00;;;14.70;79.10;;;;;;5059924;28;20074;-74
2021/10/13 09:37:24;;;;;;;6.30;5.35;;;14.70;79.00;;;;;;5063306;28;20037;-73
2021/10/13 09:40:03;;;;;;;7.35;6.38;;;14.80;79.10;;;;;;5063066;28;20375;-74
2021/10/13 09:42:39;;;;;;;6.53;5.93;;;14.80;79.10;;;;;;5061728;28;20039;-73
2021/10/13 09:45:10;;;;;;;8.45;5.85;;;14.80;79.10;;;;;;5065446;28;20021;-72
2021/10/13 09:47:36;;;;;;;6.10;5.50;;;14.80;79.00;;;;;;5070704;28;20024;-73
2021/10/13 09:50:11;;;;;;;7.18;5.03;;;14.80;79.00;;;;;;5071373;28;20052;-73
2021/10/13 09:52:38;;;;;;;6.18;5.38;;;14.80;79.00;;;;;;5078557;28;20546;-73
2021/10/13 09:55:09;;;;;;;7.32;6.45;;;14.80;78.90;;;;;;5086168;28;20373;-72
2021/10/13 09:57:44;;;;;;;6.95;5.45;;;14.80;78.90;;;;;;5083497;28;20663;-74
2021/10/13 10:00:20;;;;;;;7.10;5.97;;;14.90;79.10;;;;;;5060383;28;20563;-76
2021/10/13 10:02:54;;;;;;;7.15;6.45;;;14.90;79.10;;;;;;5060975;28;20040;-74
2021/10/13 10:05:31;;;;;;;8.35;6.57;;;14.90;79.10;;;;;;5062444;28;20035;-73
2021/10/13 10:08:06;;;;;;;7.55;5.20;;;15.00;79.20;;;;;;5057685;28;20028;-72
2021/10/13 10:10:34;;;;;;;6.68;5.68;;;15.10;79.30;;;;;;5051922;28;20040;-73
2021/10/13 10:13:05;;;;;;;7.63;5.25;;;15.20;79.40;;;;;;5052985;28;20111;-74
2021/10/13 10:15:43;;;;;;;6.13;5.50;;;15.30;79.40;;;;;;5062360;28;20024;-73
2021/10/13 10:18:32;;;;;;;5.75;5.22;;;15.50;79.60;;;;;;5060366;28;20024;-73
2021/10/13 10:21:23;;;;;;;6.05;5.45;;;15.60;79.50;;;;;;5061051;28;20029;-73
2021/10/13 10:23:51;;;;;;;5.78;5.25;;;15.70;79.40;;;;;;5051047;28;20026;-74
2021/10/13 10:26:29;;;;;;;5.82;5.20;;;15.80;79.30;;;;;;5075105;28;20035;-74
2021/10/13 10:28:57;;;;;;;5.65;5.15;;;15.90;79.30;;;;;;5068670;28;20029;-74
2021/10/13 10:31:31;;;;;;;6.30;5.80;;;16.00;79.30;;;;;;5054166;28;20082;-74
2021/10/13 10:34:03;;;;;;;6.03;4.65;;;16.00;79.10;;;;;;5053791;28;20064;-74
2021/10/13 10:36:30;;;;;;;6.97;5.03;;;16.10;79.10;;;;;;5042202;28;20041;-73
2021/10/13 10:38:56;;;;;;;5.35;4.72;;;16.10;79.00;;;;;;5052750;28;20482;-74
2021/10/13 10:41:37;;;;;;;6.00;4.80;;;16.30;79.20;;;;;;5060851;28;20032;-75
2021/10/13 10:44:29;;;;;;;5.22;4.72;;;16.40;79.20;;;;;;5056150;28;20120;-74
2021/10/13 10:47:07;;;;;;;5.47;4.82;;;16.50;79.20;;;;;;5048900;28;20032;-74
2021/10/13 10:49:53;;;;;;;5.30;4.60;;;16.60;79.10;;;;;;5048692;28;20060;-74
2021/10/13 10:52:26;;;;;;;4.07;3.40;;;16.80;79.20;;;;;;5047375;28;20514;-75
2021/10/13 10:54:58;;;;;;;6.82;4.75;;;16.90;79.40;;;;;;5050572;28;20028;-75
2021/10/13 10:57:47;;;;;;;4.60;4.10;;;17.00;79.40;;;;;;5060435;28;20069;-75
2021/10/13 11:00:21;;;;;;;4.82;3.45;;;17.20;79.50;;;;;;5036619;28;20369;-75
2021/10/13 11:03:08;;;;;;;4.72;3.83;;;17.40;79.50;;;;;;5040432;28;20475;-75
2021/10/13 11:05:34;;;;;;;5.07;4.57;;;17.50;79.40;;;;;;5036176;28;20424;-75
2021/10/13 11:08:00;;;;;;;5.88;3.35;;;17.70;79.40;;;;;;5040786;28;20112;-75
2021/10/13 11:10:26;;;;;;;6.43;3.70;;;17.80;79.30;;;;;;5048568;28;20119;-75
2021/10/13 11:12:53;;;;;;;4.22;3.83;;;18.00;79.40;;;;;;5047438;28;20081;-74
2021/10/13 11:15:22;;;;;;;5.97;3.78;;;18.10;79.20;;;;;;5046648;28;20144;-74
2021/10/13 11:17:48;;;;;;;5.22;3.30;;;18.20;79.10;;;;;;5047261;28;20029;-73
2021/10/13 11:20:22;;;;;;;5.25;3.30;;;18.30;79.00;;;;;;5047291;28;20441;-74
2021/10/13 11:23:03;;;;;;;4.00;3.58;;;18.40;78.80;;;;;;5039208;28;20036;-75
2021/10/13 11:25:30;;;;;;;5.35;3.80;;;18.50;78.70;;;;;;5047829;28;20032;-75
2021/10/13 11:28:10;;;;;;;4.35;3.13;;;18.60;78.60;;;;;;5063070;28;20029;-76
2021/10/13 11:30:41;;;;;;;3.85;3.45;;;18.70;78.40;;;;;;5044334;28;20119;-74
2021/10/13 11:33:09;;;;;;;5.78;3.88;;;18.80;78.30;;;;;;5047521;28;20382;-74
2021/10/13 11:35:35;;;;;;;4.13;3.33;;;18.90;78.00;;;;;;5065840;28;20032;-73
2021/10/13 11:38:02;;;;;;;3.28;2.85;;;19.00;77.80;;;;;;5067229;28;20036;-76
2021/10/13 11:40:29;;;;;;;3.05;2.75;;;19.10;77.50;;;;;;5066559;28;20158;-74
2021/10/13 11:43:05;;;;;;;4.45;3.10;;;19.20;77.20;;;;;;5033630;28;20540;-75
2021/10/13 11:45:31;;;;;;;4.88;3.20;;;19.30;77.00;;;;;;5047729;28;20028;-77
2021/10/13 11:48:02;;;;;;;3.35;2.75;;;19.40;76.70;;;;;;5047477;28;20029;-75
2021/10/13 11:50:33;;;;;;;3.40;3.10;;;19.40;76.20;;;;;;5046937;28;20139;-76
2021/10/13 11:53:00;;;;;;;3.75;3.17;;;19.50;76.10;;;;;;5047276;28;20052;-74
2021/10/13 11:55:32;;;;;;;3.40;3.10;;;19.50;75.80;;;;;;5053646;28;20028;-74
2021/10/13 11:58:01;;;;;;;2.92;2.63;;;19.60;75.60;;;;;;5037790;28;20029;-73
2021/10/13 12:00:33;;;;;;;4.38;3.30;;;19.70;75.60;;;;;;5045174;28;20494;-74
2021/10/13 12:03:06;;;;;;;3.67;3.15;;;19.70;75.20;;;;;;5035771;28;20025;-73
2021/10/13 12:05:31;;;;;;;;;;;19.80;75.10;;;;;;5037261;28;20036;-72
2021/10/13 12:08:03;;;;;;;4.18;3.08;;;19.90;75.40;;;;;;5038564;28;20295;-74
2021/10/13 12:10:34;;;;;;;3.50;3.20;;;20.00;75.10;;;;;;5035491;28;20475;-76
2021/10/13 12:13:22;;;;;;;3.67;3.03;;;20.00;74.70;;;;;;5041482;28;20033;-76
2021/10/13 12:15:48;;;;;;;3.28;2.90;;;20.10;74.60;;;;;;5052586;28;20044;-73
2021/10/13 12:18:23;;;;;;;2.90;2.50;;;20.20;74.50;;;;;;5044684;28;20044;-74
2021/10/13 12:21:02;;;;;;;3.85;2.13;;;20.20;74.00;;;;;;5045109;28;20033;-74
2021/10/13 12:23:30;;;;;;;2.05;1.90;;;20.30;73.80;;;;;;5046468;28;20028;-74
2021/10/13 12:25:58;;;;;;;2.10;1.75;;;20.40;73.80;;;;;;5060138;28;20040;-76
2021/10/13 12:28:27;;;;;;;2.03;1.83;;;20.40;73.50;;;;;;5047222;28;20040;-74
2021/10/13 12:31:08;;;;;;;4.68;2.25;;;20.40;73.30;;;;;;5042755;28;20459;-74
2021/10/13 12:33:44;;;;;;;2.22;1.70;;;20.50;73.30;;;;;;5038842;28;20482;-75
2021/10/13 12:36:13;;;;;;;2.58;1.58;;;20.60;73.30;;;;;;5028784;28;20029;-73
2021/10/13 12:38:49;;;;;;;2.03;1.75;;;20.70;73.30;;;;;;5040101;28;20434;-73
2021/10/13 12:41:16;;;;;;;2.72;1.67;;;20.70;73.00;;;;;;5045874;28;20029;-74
2021/10/13 12:43:48;;;;;;;1.77;1.67;;;20.80;73.20;;;;;;5043263;28;20037;-75
2021/10/13 12:46:33;;;;;;;2.07;1.83;;;20.90;73.10;;;;;;5032517;28;20075;-71
2021/10/13 12:49:13;;;;;;;2.67;1.80;;;21.00;73.10;;;;;;5035115;28;20159;-72
2021/10/13 12:51:59;;;;;;;4.15;1.90;;;21.00;72.80;;;;;;5043185;28;20040;-75
2021/10/13 12:54:25;;;;;;;3.83;1.95;;;21.10;72.90;;;;;;5057044;28;20036;-73
2021/10/13 12:56:52;;;;;;;1.98;1.50;;;21.10;72.80;;;;;;5064139;28;20427;-73
2021/10/13 12:59:18;;;;;;;2.92;2.00;;;21.20;72.80;;;;;;5048097;28;20086;-74
2021/10/13 13:01:44;;;;;;;2.47;1.90;;;21.20;72.60;;;;;;5045377;28;20463;-73